sensor_id;sensor_type;location;lat;lon;timestamp;P1;durP1;ratioP1;P2;durP2;ratioP2
76550;SDS011;65393;53.160;18.170;2022-12-20T00:01:10;38.90;;;17.20;;
76550;SDS011;65393;53.160;18.170;2022-12-20T00:03:41;40.50;;;17.80;;
76550;SDS011;65393;53.160;18.170;2022-12-20T00:06:10;42.90;;;18.90;;
76550;SDS011;65393;53.160;18.170;2022-12-20T00:08:38;35.10;;;15.10;;
76550;SDS011;65393;53.160;18.170;2022-12-20T00:11:05;39.70;;;16.70;;
76550;SDS011;65393;53.160;18.170;2022-12-20T00:13:34;39.50;;;17.70;;
76550;SDS011;65393;53.160;18.170;2022-12-20T00:16:14;48.20;;;19.70;;
76550;SDS011;65393;53.160;18.170;2022-12-20T00:18:55;44.60;;;19.40;;
76550;SDS011;65393;53.160;18.170;2022-12-20T00:21:24;50.70;;;19.80;;
76550;SDS011;65393;53.160;18.170;2022-12-20T00:23:52;42.80;;;19.10;;
76550;SDS011;65393;53.160;18.170;2022-12-20T00:26:21;52.40;;;21.90;;
76550;SDS011;65393;53.160;18.170;2022-12-20T00:28:50;34.50;;;15.50;;
76550;SDS011;65393;53.160;18.170;2022-12-20T00:31:17;46.80;;;18.60;;
76550;SDS011;65393;53.160;18.170;2022-12-20T00:33:46;44.30;;;17.70;;
76550;SDS011;65393;53.160;18.170;2022-12-20T00:36:14;49.20;;;19.60;;
76550;SDS011;65393;53.160;18.170;2022-12-20T00:38:49;45.10;;;19.30;;
76550;SDS011;65393;53.160;18.170;2022-12-20T00:41:18;32.00;;;13.10;;
76550;SDS011;65393;53.160;18.170;2022-12-20T00:43:47;45.50;;;17.00;;
76550;SDS011;65393;53.160;18.170;2022-12-20T00:46:15;36.90;;;15.40;;
76550;SDS011;65393;53.160;18.170;2022-12-20T00:48:44;46.10;;;20.80;;
76550;SDS011;65393;53.160;18.170;2022-12-20T00:51:12;46.50;;;18.60;;
76550;SDS011;65393;53.160;18.170;2022-12-20T00:53:42;46.70;;;19.10;;
76550;SDS011;65393;53.160;18.170;2022-12-20T00:56:11;45.70;;;18.00;;
76550;SDS011;65393;53.160;18.170;2022-12-20T00:58:38;43.90;;;17.60;;
76550;SDS011;65393;53.160;18.170;2022-12-20T01:04:03;48.70;;;20.10;;
76550;SDS011;65393;53.160;18.170;2022-12-20T01:06:30;34.40;;;14.20;;
76550;SDS011;65393;53.160;18.170;2022-12-20T01:08:57;50.30;;;20.60;;
76550;SDS011;65393;53.160;18.170;2022-12-20T01:11:28;34.00;;;13.60;;
76550;SDS011;65393;53.160;18.170;2022-12-20T01:13:58;46.50;;;19.50;;
76550;SDS011;65393;53.160;18.170;2022-12-20T01:16:31;41.60;;;18.10;;
76550;SDS011;65393;53.160;18.170;2022-12-20T01:19:01;39.70;;;16.70;;
76550;SDS011;65393;53.160;18.170;2022-12-20T01:21:29;45.90;;;19.10;;
76550;SDS011;65393;53.160;18.170;2022-12-20T01:23:56;41.60;;;16.50;;
76550;SDS011;65393;53.160;18.170;2022-12-20T01:26:24;47.00;;;18.60;;
76550;SDS011;65393;53.160;18.170;2022-12-20T01:28:54;45.70;;;19.00;;
76550;SDS011;65393;53.160;18.170;2022-12-20T01:31:23;39.70;;;17.10;;
76550;SDS011;65393;53.160;18.170;2022-12-20T01:33:51;38.70;;;16.30;;
76550;SDS011;65393;53.160;18.170;2022-12-20T01:36:19;37.30;;;14.80;;
76550;SDS011;65393;53.160;18.170;2022-12-20T01:38:54;44.10;;;16.60;;
76550;SDS011;65393;53.160;18.170;2022-12-20T01:41:22;36.40;;;15.50;;
76550;SDS011;65393;53.160;18.170;2022-12-20T01:43:50;46.40;;;17.00;;
76550;SDS011;65393;53.160;18.170;2022-12-20T01:46:26;36.20;;;15.60;;
76550;SDS011;65393;53.160;18.170;2022-12-20T01:51:24;39.90;;;17.10;;
76550;SDS011;65393;53.160;18.170;2022-12-20T01:53:55;40.40;;;16.20;;
76550;SDS011;65393;53.160;18.170;2022-12-20T01:56:27;33.40;;;14.50;;
76550;SDS011;65393;53.160;18.170;2022-12-20T01:58:54;46.10;;;18.20;;
76550;SDS011;65393;53.160;18.170;2022-12-20T02:01:24;43.40;;;18.50;;
76550;SDS011;65393;53.160;18.170;2022-12-20T02:03:51;35.70;;;14.40;;
76550;SDS011;65393;53.160;18.170;2022-12-20T02:06:19;39.90;;;17.10;;
76550;SDS011;65393;53.160;18.170;2022-12-20T02:08:49;48.00;;;15.20;;
76550;SDS011;65393;53.160;18.170;2022-12-20T02:14:04;38.90;;;15.70;;
76550;SDS011;65393;53.160;18.170;2022-12-20T02:16:56;37.00;;;15.90;;
76550;SDS011;65393;53.160;18.170;2022-12-20T02:22:45;38.30;;;16.00;;
76550;SDS011;65393;53.160;18.170;2022-12-20T02:28:38;33.30;;;14.00;;
76550;SDS011;65393;53.160;18.170;2022-12-20T02:31:40;34.00;;;14.10;;
76550;SDS011;65393;53.160;18.170;2022-12-20T02:34:12;41.30;;;15.50;;
76550;SDS011;65393;53.160;18.170;2022-12-20T02:36:40;35.70;;;14.00;;
76550;SDS011;65393;53.160;18.170;2022-12-20T02:39:10;34.30;;;14.40;;
76550;SDS011;65393;53.160;18.170;2022-12-20T02:41:41;38.90;;;15.60;;
76550;SDS011;65393;53.160;18.170;2022-12-20T02:44:14;42.00;;;16.50;;
76550;SDS011;65393;53.160;18.170;2022-12-20T02:47:05;42.30;;;17.10;;
76550;SDS011;65393;53.160;18.170;2022-12-20T02:49:36;40.60;;;16.80;;
76550;SDS011;65393;53.160;18.170;2022-12-20T02:52:08;36.90;;;15.50;;
76550;SDS011;65393;53.160;18.170;2022-12-20T02:54:39;43.00;;;18.20;;
76550;SDS011;65393;53.160;18.170;2022-12-20T02:57:17;43.70;;;18.20;;
76550;SDS011;65393;53.160;18.170;2022-12-20T03:02:28;43.60;;;18.10;;
76550;SDS011;65393;53.160;18.170;2022-12-20T03:05:16;36.60;;;15.40;;
76550;SDS011;65393;53.160;18.170;2022-12-20T03:07:45;43.00;;;16.20;;
76550;SDS011;65393;53.160;18.170;2022-12-20T03:10:12;38.00;;;16.30;;
76550;SDS011;65393;53.160;18.170;2022-12-20T03:12:39;36.70;;;14.50;;
76550;SDS011;65393;53.160;18.170;2022-12-20T03:15:06;35.60;;;14.60;;
76550;SDS011;65393;53.160;18.170;2022-12-20T03:17:33;39.20;;;16.70;;
76550;SDS011;65393;53.160;18.170;2022-12-20T03:20:01;42.20;;;16.60;;
76550;SDS011;65393;53.160;18.170;2022-12-20T03:22:28;34.10;;;14.00;;
76550;SDS011;65393;53.160;18.170;2022-12-20T03:24:54;39.00;;;14.70;;
76550;SDS011;65393;53.160;18.170;2022-12-20T03:27:22;36.00;;;15.00;;
76550;SDS011;65393;53.160;18.170;2022-12-20T03:29:49;35.20;;;14.60;;
76550;SDS011;65393;53.160;18.170;2022-12-20T03:32:16;32.00;;;13.30;;
76550;SDS011;65393;53.160;18.170;2022-12-20T03:34:43;36.30;;;15.30;;
76550;SDS011;65393;53.160;18.170;2022-12-20T03:37:10;30.80;;;11.80;;
76550;SDS011;65393;53.160;18.170;2022-12-20T03:39:37;37.70;;;15.00;;
76550;SDS011;65393;53.160;18.170;2022-12-20T03:42:04;38.60;;;16.60;;
76550;SDS011;65393;53.160;18.170;2022-12-20T03:44:31;40.80;;;18.90;;
76550;SDS011;65393;53.160;18.170;2022-12-20T03:46:58;46.70;;;19.20;;
76550;SDS011;65393;53.160;18.170;2022-12-20T03:49:25;41.00;;;17.30;;
76550;SDS011;65393;53.160;18.170;2022-12-20T03:51:52;39.80;;;17.20;;
76550;SDS011;65393;53.160;18.170;2022-12-20T03:54:19;40.30;;;18.60;;
76550;SDS011;65393;53.160;18.170;2022-12-20T03:57:13;38.00;;;15.30;;
76550;SDS011;65393;53.160;18.170;2022-12-20T03:59:40;39.30;;;18.10;;
76550;SDS011;65393;53.160;18.170;2022-12-20T04:02:08;35.80;;;15.20;;
76550;SDS011;65393;53.160;18.170;2022-12-20T04:04:34;39.80;;;16.30;;
76550;SDS011;65393;53.160;18.170;2022-12-20T04:07:01;37.50;;;15.70;;
76550;SDS011;65393;53.160;18.170;2022-12-20T04:09:29;43.80;;;18.80;;
76550;SDS011;65393;53.160;18.170;2022-12-20T04:12:01;40.40;;;18.40;;
76550;SDS011;65393;53.160;18.170;2022-12-20T04:14:29;39.20;;;15.40;;
76550;SDS011;65393;53.160;18.170;2022-12-20T04:16:56;38.70;;;16.60;;
76550;SDS011;65393;53.160;18.170;2022-12-20T04:19:23;46.30;;;19.80;;
76550;SDS011;65393;53.160;18.170;2022-12-20T04:21:50;44.20;;;19.00;;
76550;SDS011;65393;53.160;18.170;2022-12-20T04:24:17;41.90;;;17.60;;
76550;SDS011;65393;53.160;18.170;2022-12-20T04:27:13;43.80;;;18.40;;
76550;SDS011;65393;53.160;18.170;2022-12-20T04:29:40;42.50;;;17.70;;
76550;SDS011;65393;53.160;18.170;2022-12-20T04:32:08;40.60;;;17.70;;
76550;SDS011;65393;53.160;18.170;2022-12-20T04:34:34;47.60;;;19.60;;
76550;SDS011;65393;53.160;18.170;2022-12-20T04:37:01;42.10;;;18.10;;
76550;SDS011;65393;53.160;18.170;2022-12-20T04:39:37;50.60;;;20.20;;
76550;SDS011;65393;53.160;18.170;2022-12-20T04:42:18;49.30;;;20.20;;
76550;SDS011;65393;53.160;18.170;2022-12-20T04:44:45;39.40;;;17.10;;
76550;SDS011;65393;53.160;18.170;2022-12-20T04:47:13;37.10;;;15.40;;
76550;SDS011;65393;53.160;18.170;2022-12-20T04:49:40;39.60;;;16.80;;
76550;SDS011;65393;53.160;18.170;2022-12-20T04:52:07;39.30;;;16.80;;
76550;SDS011;65393;53.160;18.170;2022-12-20T04:54:52;33.90;;;14.90;;
76550;SDS011;65393;53.160;18.170;2022-12-20T04:57:24;34.30;;;14.40;;
76550;SDS011;65393;53.160;18.170;2022-12-20T04:59:50;29.60;;;12.00;;
76550;SDS011;65393;53.160;18.170;2022-12-20T05:02:18;32.00;;;13.60;;
76550;SDS011;65393;53.160;18.170;2022-12-20T05:04:51;33.60;;;14.00;;
76550;SDS011;65393;53.160;18.170;2022-12-20T05:07:18;32.10;;;13.30;;
76550;SDS011;65393;53.160;18.170;2022-12-20T05:09:49;31.90;;;12.60;;
76550;SDS011;65393;53.160;18.170;2022-12-20T05:12:16;36.80;;;15.60;;
76550;SDS011;65393;53.160;18.170;2022-12-20T05:14:44;37.00;;;14.50;;
76550;SDS011;65393;53.160;18.170;2022-12-20T05:17:13;31.70;;;13.30;;
76550;SDS011;65393;53.160;18.170;2022-12-20T05:19:39;32.30;;;14.90;;
76550;SDS011;65393;53.160;18.170;2022-12-20T05:22:07;35.70;;;15.00;;
76550;SDS011;65393;53.160;18.170;2022-12-20T05:25:15;35.20;;;15.10;;
76550;SDS011;65393;53.160;18.170;2022-12-20T05:28:03;32.80;;;15.10;;
76550;SDS011;65393;53.160;18.170;2022-12-20T05:30:33;38.30;;;15.30;;
76550;SDS011;65393;53.160;18.170;2022-12-20T05:33:00;29.30;;;12.40;;
76550;SDS011;65393;53.160;18.170;2022-12-20T05:35:27;39.00;;;16.00;;
76550;SDS011;65393;53.160;18.170;2022-12-20T05:38:00;32.70;;;15.10;;
76550;SDS011;65393;53.160;18.170;2022-12-20T05:40:28;39.30;;;15.40;;
76550;SDS011;65393;53.160;18.170;2022-12-20T05:42:55;41.90;;;17.00;;
76550;SDS011;65393;53.160;18.170;2022-12-20T05:45:25;42.60;;;17.40;;
76550;SDS011;65393;53.160;18.170;2022-12-20T05:50:24;35.20;;;15.70;;
76550;SDS011;65393;53.160;18.170;2022-12-20T05:53:10;38.30;;;15.00;;
76550;SDS011;65393;53.160;18.170;2022-12-20T05:55:46;37.80;;;15.80;;
76550;SDS011;65393;53.160;18.170;2022-12-20T05:58:15;39.50;;;16.40;;
76550;SDS011;65393;53.160;18.170;2022-12-20T06:00:53;42.00;;;17.20;;
76550;SDS011;65393;53.160;18.170;2022-12-20T06:03:19;38.70;;;16.90;;
76550;SDS011;65393;53.160;18.170;2022-12-20T06:05:46;36.60;;;15.60;;
76550;SDS011;65393;53.160;18.170;2022-12-20T06:08:18;36.20;;;14.00;;
76550;SDS011;65393;53.160;18.170;2022-12-20T06:10:46;36.90;;;14.60;;
76550;SDS011;65393;53.160;18.170;2022-12-20T06:13:15;28.50;;;11.20;;
76550;SDS011;65393;53.160;18.170;2022-12-20T06:15:43;36.80;;;13.60;;
76550;SDS011;65393;53.160;18.170;2022-12-20T06:18:10;35.90;;;14.90;;
76550;SDS011;65393;53.160;18.170;2022-12-20T06:20:38;29.20;;;11.90;;
76550;SDS011;65393;53.160;18.170;2022-12-20T06:23:05;29.90;;;13.30;;
76550;SDS011;65393;53.160;18.170;2022-12-20T06:25:40;33.40;;;12.70;;
76550;SDS011;65393;53.160;18.170;2022-12-20T06:28:07;32.70;;;13.40;;
76550;SDS011;65393;53.160;18.170;2022-12-20T06:30:34;31.70;;;12.60;;
76550;SDS011;65393;53.160;18.170;2022-12-20T06:33:06;33.30;;;13.50;;
76550;SDS011;65393;53.160;18.170;2022-12-20T06:35:33;27.00;;;11.10;;
76550;SDS011;65393;53.160;18.170;2022-12-20T06:38:00;27.00;;;11.40;;
76550;SDS011;65393;53.160;18.170;2022-12-20T06:40:30;28.80;;;11.10;;
76550;SDS011;65393;53.160;18.170;2022-12-20T06:43:00;29.90;;;12.90;;
76550;SDS011;65393;53.160;18.170;2022-12-20T06:45:26;31.50;;;13.10;;
76550;SDS011;65393;53.160;18.170;2022-12-20T06:47:53;26.30;;;11.60;;
76550;SDS011;65393;53.160;18.170;2022-12-20T06:50:23;28.60;;;13.00;;
76550;SDS011;65393;53.160;18.170;2022-12-20T06:52:50;30.60;;;13.00;;
76550;SDS011;65393;53.160;18.170;2022-12-20T06:55:16;29.30;;;13.20;;
76550;SDS011;65393;53.160;18.170;2022-12-20T06:57:44;33.50;;;14.90;;
76550;SDS011;65393;53.160;18.170;2022-12-20T07:00:12;32.70;;;14.90;;
76550;SDS011;65393;53.160;18.170;2022-12-20T07:02:39;36.60;;;15.10;;
76550;SDS011;65393;53.160;18.170;2022-12-20T07:05:06;45.60;;;19.00;;
76550;SDS011;65393;53.160;18.170;2022-12-20T07:07:33;54.70;;;21.10;;
76550;SDS011;65393;53.160;18.170;2022-12-20T07:10:00;50.40;;;18.10;;
76550;SDS011;65393;53.160;18.170;2022-12-20T07:12:26;44.20;;;14.70;;
76550;SDS011;65393;53.160;18.170;2022-12-20T07:14:53;48.20;;;17.30;;
76550;SDS011;65393;53.160;18.170;2022-12-20T07:17:20;32.90;;;12.10;;
76550;SDS011;65393;53.160;18.170;2022-12-20T07:19:47;42.80;;;16.50;;
76550;SDS011;65393;53.160;18.170;2022-12-20T07:22:13;45.00;;;16.00;;
76550;SDS011;65393;53.160;18.170;2022-12-20T07:24:40;41.10;;;14.70;;
76550;SDS011;65393;53.160;18.170;2022-12-20T07:27:07;35.00;;;13.50;;
76550;SDS011;65393;53.160;18.170;2022-12-20T07:29:33;31.40;;;13.10;;
76550;SDS011;65393;53.160;18.170;2022-12-20T07:32:01;38.90;;;15.70;;
76550;SDS011;65393;53.160;18.170;2022-12-20T07:34:28;40.30;;;15.30;;
76550;SDS011;65393;53.160;18.170;2022-12-20T07:36:55;35.40;;;14.70;;
76550;SDS011;65393;53.160;18.170;2022-12-20T07:39:22;33.90;;;13.40;;
76550;SDS011;65393;53.160;18.170;2022-12-20T07:41:51;38.20;;;15.80;;
76550;SDS011;65393;53.160;18.170;2022-12-20T07:44:22;37.50;;;15.80;;
76550;SDS011;65393;53.160;18.170;2022-12-20T07:46:49;33.30;;;12.30;;
76550;SDS011;65393;53.160;18.170;2022-12-20T07:49:16;33.80;;;13.70;;
76550;SDS011;65393;53.160;18.170;2022-12-20T07:51:44;38.20;;;14.90;;
76550;SDS011;65393;53.160;18.170;2022-12-20T07:54:17;31.70;;;13.70;;
76550;SDS011;65393;53.160;18.170;2022-12-20T07:56:47;40.20;;;17.70;;
76550;SDS011;65393;53.160;18.170;2022-12-20T07:59:20;36.90;;;15.50;;
76550;SDS011;65393;53.160;18.170;2022-12-20T08:01:51;46.20;;;19.90;;
76550;SDS011;65393;53.160;18.170;2022-12-20T08:04:20;40.20;;;16.10;;
76550;SDS011;65393;53.160;18.170;2022-12-20T08:06:51;36.50;;;15.40;;
76550;SDS011;65393;53.160;18.170;2022-12-20T08:09:21;33.60;;;13.50;;
76550;SDS011;65393;53.160;18.170;2022-12-20T08:11:50;33.90;;;14.60;;
76550;SDS011;65393;53.160;18.170;2022-12-20T08:14:18;33.80;;;14.60;;
76550;SDS011;65393;53.160;18.170;2022-12-20T08:16:45;39.40;;;16.40;;
76550;SDS011;65393;53.160;18.170;2022-12-20T08:19:12;40.70;;;17.40;;
76550;SDS011;65393;53.160;18.170;2022-12-20T08:21:39;44.80;;;17.80;;
76550;SDS011;65393;53.160;18.170;2022-12-20T08:24:06;38.30;;;14.50;;
76550;SDS011;65393;53.160;18.170;2022-12-20T08:26:37;41.70;;;16.30;;
76550;SDS011;65393;53.160;18.170;2022-12-20T08:29:05;39.20;;;15.20;;
76550;SDS011;65393;53.160;18.170;2022-12-20T08:31:31;41.10;;;14.80;;
76550;SDS011;65393;53.160;18.170;2022-12-20T08:33:58;43.60;;;16.90;;
76550;SDS011;65393;53.160;18.170;2022-12-20T08:36:25;39.20;;;16.20;;
76550;SDS011;65393;53.160;18.170;2022-12-20T08:38:51;49.40;;;19.80;;
76550;SDS011;65393;53.160;18.170;2022-12-20T08:41:18;37.70;;;16.40;;
76550;SDS011;65393;53.160;18.170;2022-12-20T08:43:45;45.20;;;18.10;;
76550;SDS011;65393;53.160;18.170;2022-12-20T08:46:11;40.30;;;16.90;;
76550;SDS011;65393;53.160;18.170;2022-12-20T08:48:38;47.50;;;17.90;;
76550;SDS011;65393;53.160;18.170;2022-12-20T08:51:06;36.30;;;15.00;;
76550;SDS011;65393;53.160;18.170;2022-12-20T08:53:34;45.80;;;17.50;;
76550;SDS011;65393;53.160;18.170;2022-12-20T08:56:03;41.70;;;18.50;;
76550;SDS011;65393;53.160;18.170;2022-12-20T08:58:30;50.50;;;19.80;;
76550;SDS011;65393;53.160;18.170;2022-12-20T09:00:58;42.00;;;17.00;;
76550;SDS011;65393;53.160;18.170;2022-12-20T09:03:26;38.60;;;15.20;;
76550;SDS011;65393;53.160;18.170;2022-12-20T09:05:56;40.50;;;16.20;;
76550;SDS011;65393;53.160;18.170;2022-12-20T09:08:24;46.30;;;19.00;;
76550;SDS011;65393;53.160;18.170;2022-12-20T09:10:52;40.40;;;17.60;;
76550;SDS011;65393;53.160;18.170;2022-12-20T09:13:19;44.10;;;17.70;;
76550;SDS011;65393;53.160;18.170;2022-12-20T09:15:47;37.80;;;15.90;;
76550;SDS011;65393;53.160;18.170;2022-12-20T09:18:13;37.40;;;16.00;;
76550;SDS011;65393;53.160;18.170;2022-12-20T09:20:43;40.70;;;17.00;;
76550;SDS011;65393;53.160;18.170;2022-12-20T09:23:13;44.70;;;17.80;;
76550;SDS011;65393;53.160;18.170;2022-12-20T09:25:39;35.10;;;15.20;;
76550;SDS011;65393;53.160;18.170;2022-12-20T09:28:06;36.20;;;15.10;;
76550;SDS011;65393;53.160;18.170;2022-12-20T09:30:33;44.00;;;18.40;;
76550;SDS011;65393;53.160;18.170;2022-12-20T09:32:59;38.00;;;15.80;;
76550;SDS011;65393;53.160;18.170;2022-12-20T09:35:26;39.50;;;18.20;;
76550;SDS011;65393;53.160;18.170;2022-12-20T09:37:53;40.40;;;17.90;;
76550;SDS011;65393;53.160;18.170;2022-12-20T09:40:20;37.30;;;17.00;;
76550;SDS011;65393;53.160;18.170;2022-12-20T09:42:49;35.10;;;16.20;;
76550;SDS011;65393;53.160;18.170;2022-12-20T09:45:37;28.90;;;13.60;;
76550;SDS011;65393;53.160;18.170;2022-12-20T09:48:04;30.90;;;13.20;;
76550;SDS011;65393;53.160;18.170;2022-12-20T09:56:25;39.10;;;18.00;;
76550;SDS011;65393;53.160;18.170;2022-12-20T09:59:01;36.70;;;15.60;;
76550;SDS011;65393;53.160;18.170;2022-12-20T10:01:31;33.20;;;15.20;;
76550;SDS011;65393;53.160;18.170;2022-12-20T10:04:02;38.80;;;16.10;;
76550;SDS011;65393;53.160;18.170;2022-12-20T10:09:39;35.30;;;15.30;;
76550;SDS011;65393;53.160;18.170;2022-12-20T10:26:21;33.70;;;16.20;;
76550;SDS011;65393;53.160;18.170;2022-12-20T10:28:48;33.70;;;13.80;;
76550;SDS011;65393;53.160;18.170;2022-12-20T10:31:16;37.60;;;17.30;;
76550;SDS011;65393;53.160;18.170;2022-12-20T10:33:44;39.00;;;17.00;;
76550;SDS011;65393;53.160;18.170;2022-12-20T10:36:22;32.30;;;14.10;;
76550;SDS011;65393;53.160;18.170;2022-12-20T10:38:53;35.00;;;15.90;;
76550;SDS011;65393;53.160;18.170;2022-12-20T10:41:23;36.50;;;16.40;;
76550;SDS011;65393;53.160;18.170;2022-12-20T10:46:40;30.40;;;13.80;;
76550;SDS011;65393;53.160;18.170;2022-12-20T10:54:41;38.60;;;16.10;;
76550;SDS011;65393;53.160;18.170;2022-12-20T10:57:16;34.40;;;14.60;;
76550;SDS011;65393;53.160;18.170;2022-12-20T10:59:44;36.80;;;15.80;;
76550;SDS011;65393;53.160;18.170;2022-12-20T11:02:27;33.40;;;14.60;;
76550;SDS011;65393;53.160;18.170;2022-12-20T11:05:23;32.70;;;13.50;;
76550;SDS011;65393;53.160;18.170;2022-12-20T11:07:52;39.80;;;15.80;;
76550;SDS011;65393;53.160;18.170;2022-12-20T11:12:53;39.90;;;16.50;;
76550;SDS011;65393;53.160;18.170;2022-12-20T11:15:22;38.80;;;18.00;;
76550;SDS011;65393;53.160;18.170;2022-12-20T11:17:51;41.20;;;18.20;;
76550;SDS011;65393;53.160;18.170;2022-12-20T11:20:41;41.80;;;18.50;;
76550;SDS011;65393;53.160;18.170;2022-12-20T11:26:08;39.70;;;15.30;;
76550;SDS011;65393;53.160;18.170;2022-12-20T11:37:50;36.40;;;16.10;;
76550;SDS011;65393;53.160;18.170;2022-12-20T11:43:03;34.50;;;13.80;;
76550;SDS011;65393;53.160;18.170;2022-12-20T11:45:44;33.70;;;13.20;;
76550;SDS011;65393;53.160;18.170;2022-12-20T11:48:48;31.90;;;13.20;;
76550;SDS011;65393;53.160;18.170;2022-12-20T11:51:44;32.30;;;12.80;;
76550;SDS011;65393;53.160;18.170;2022-12-20T11:56:55;36.30;;;16.40;;
76550;SDS011;65393;53.160;18.170;2022-12-20T12:05:17;33.80;;;14.40;;
76550;SDS011;65393;53.160;18.170;2022-12-20T12:07:51;31.20;;;13.60;;
76550;SDS011;65393;53.160;18.170;2022-12-20T12:10:22;32.30;;;13.70;;
76550;SDS011;65393;53.160;18.170;2022-12-20T12:15:45;48.70;;;18.00;;
76550;SDS011;65393;53.160;18.170;2022-12-20T12:18:20;39.10;;;17.40;;
76550;SDS011;65393;53.160;18.170;2022-12-20T12:23:44;37.70;;;15.70;;
76550;SDS011;65393;53.160;18.170;2022-12-20T12:26:23;38.60;;;17.40;;
76550;SDS011;65393;53.160;18.170;2022-12-20T12:28:55;42.80;;;17.20;;
76550;SDS011;65393;53.160;18.170;2022-12-20T12:42:37;41.20;;;17.00;;
76550;SDS011;65393;53.160;18.170;2022-12-20T12:45:45;42.90;;;18.40;;
76550;SDS011;65393;53.160;18.170;2022-12-20T12:48:21;41.00;;;17.60;;
76550;SDS011;65393;53.160;18.170;2022-12-20T12:50:50;38.70;;;16.50;;
76550;SDS011;65393;53.160;18.170;2022-12-20T12:53:22;41.10;;;16.70;;
76550;SDS011;65393;53.160;18.170;2022-12-20T12:55:58;36.50;;;15.70;;
76550;SDS011;65393;53.160;18.170;2022-12-20T13:16:54;44.20;;;18.10;;
76550;SDS011;65393;53.160;18.170;2022-12-20T13:19:37;45.00;;;18.30;;
76550;SDS011;65393;53.160;18.170;2022-12-20T13:27:49;40.40;;;16.40;;
76550;SDS011;65393;53.160;18.170;2022-12-20T13:40:42;35.80;;;13.90;;
76550;SDS011;65393;53.160;18.170;2022-12-20T13:43:23;40.10;;;17.30;;
76550;SDS011;65393;53.160;18.170;2022-12-20T13:51:16;37.70;;;17.20;;
76550;SDS011;65393;53.160;18.170;2022-12-20T13:53:51;33.20;;;14.00;;
76550;SDS011;65393;53.160;18.170;2022-12-20T13:58:54;37.80;;;16.30;;
76550;SDS011;65393;53.160;18.170;2022-12-20T14:01:23;43.60;;;18.60;;
76550;SDS011;65393;53.160;18.170;2022-12-20T14:03:52;41.80;;;18.00;;
76550;SDS011;65393;53.160;18.170;2022-12-20T14:06:19;40.30;;;16.60;;
76550;SDS011;65393;53.160;18.170;2022-12-20T14:08:49;44.20;;;18.60;;
76550;SDS011;65393;53.160;18.170;2022-12-20T14:11:21;41.00;;;16.50;;
76550;SDS011;65393;53.160;18.170;2022-12-20T14:13:57;36.00;;;13.70;;
76550;SDS011;65393;53.160;18.170;2022-12-20T14:16:26;35.10;;;14.90;;
76550;SDS011;65393;53.160;18.170;2022-12-20T14:21:30;46.60;;;17.80;;
76550;SDS011;65393;53.160;18.170;2022-12-20T14:24:00;40.50;;;17.30;;
76550;SDS011;65393;53.160;18.170;2022-12-20T14:26:44;40.70;;;15.40;;
76550;SDS011;65393;53.160;18.170;2022-12-20T14:29:17;38.60;;;15.60;;
76550;SDS011;65393;53.160;18.170;2022-12-20T14:31:55;37.30;;;16.40;;
76550;SDS011;65393;53.160;18.170;2022-12-20T14:39:55;42.00;;;17.10;;
76550;SDS011;65393;53.160;18.170;2022-12-20T14:42:26;48.00;;;17.90;;
76550;SDS011;65393;53.160;18.170;2022-12-20T14:47:50;82.10;;;31.60;;
76550;SDS011;65393;53.160;18.170;2022-12-20T14:53:02;50.50;;;18.30;;
76550;SDS011;65393;53.160;18.170;2022-12-20T14:55:38;46.20;;;17.90;;
76550;SDS011;65393;53.160;18.170;2022-12-20T15:00:59;45.70;;;17.70;;
76550;SDS011;65393;53.160;18.170;2022-12-20T15:03:27;46.10;;;16.60;;
76550;SDS011;65393;53.160;18.170;2022-12-20T15:05:57;47.70;;;16.70;;
76550;SDS011;65393;53.160;18.170;2022-12-20T15:11:00;47.60;;;18.10;;
76550;SDS011;65393;53.160;18.170;2022-12-20T15:13:37;44.20;;;16.50;;
76550;SDS011;65393;53.160;18.170;2022-12-20T15:16:05;47.40;;;16.80;;
76550;SDS011;65393;53.160;18.170;2022-12-20T15:18:44;49.30;;;17.50;;
76550;SDS011;65393;53.160;18.170;2022-12-20T15:21:15;41.20;;;17.60;;
76550;SDS011;65393;53.160;18.170;2022-12-20T15:24:05;42.10;;;18.60;;
76550;SDS011;65393;53.160;18.170;2022-12-20T15:26:36;44.60;;;18.10;;
76550;SDS011;65393;53.160;18.170;2022-12-20T15:29:03;66.70;;;23.50;;
76550;SDS011;65393;53.160;18.170;2022-12-20T15:31:31;62.50;;;22.10;;
76550;SDS011;65393;53.160;18.170;2022-12-20T15:34:00;51.50;;;19.20;;
76550;SDS011;65393;53.160;18.170;2022-12-20T15:36:33;52.60;;;19.90;;
76550;SDS011;65393;53.160;18.170;2022-12-20T15:39:00;54.50;;;23.10;;
76550;SDS011;65393;53.160;18.170;2022-12-20T15:41:27;51.20;;;20.80;;
76550;SDS011;65393;53.160;18.170;2022-12-20T15:43:57;56.60;;;22.20;;
76550;SDS011;65393;53.160;18.170;2022-12-20T15:46:26;62.60;;;24.60;;
76550;SDS011;65393;53.160;18.170;2022-12-20T15:48:53;59.40;;;20.70;;
76550;SDS011;65393;53.160;18.170;2022-12-20T15:54:04;72.30;;;23.40;;
76550;SDS011;65393;53.160;18.170;2022-12-20T15:56:39;73.20;;;23.30;;
76550;SDS011;65393;53.160;18.170;2022-12-20T15:59:06;79.40;;;24.00;;
76550;SDS011;65393;53.160;18.170;2022-12-20T16:01:34;66.40;;;22.00;;
76550;SDS011;65393;53.160;18.170;2022-12-20T16:04:04;50.50;;;17.50;;
76550;SDS011;65393;53.160;18.170;2022-12-20T16:06:32;60.30;;;19.70;;
76550;SDS011;65393;53.160;18.170;2022-12-20T16:08:58;53.60;;;19.50;;
76550;SDS011;65393;53.160;18.170;2022-12-20T16:11:26;50.50;;;18.90;;
76550;SDS011;65393;53.160;18.170;2022-12-20T16:13:58;47.50;;;18.30;;
76550;SDS011;65393;53.160;18.170;2022-12-20T16:16:32;54.50;;;20.50;;
76550;SDS011;65393;53.160;18.170;2022-12-20T16:19:01;47.00;;;18.30;;
76550;SDS011;65393;53.160;18.170;2022-12-20T16:21:33;46.00;;;18.50;;
76550;SDS011;65393;53.160;18.170;2022-12-20T16:24:01;61.60;;;23.30;;
76550;SDS011;65393;53.160;18.170;2022-12-20T16:26:28;78.10;;;29.90;;
76550;SDS011;65393;53.160;18.170;2022-12-20T16:28:56;85.60;;;30.90;;
76550;SDS011;65393;53.160;18.170;2022-12-20T16:31:24;84.80;;;29.70;;
76550;SDS011;65393;53.160;18.170;2022-12-20T16:33:51;87.10;;;30.20;;
76550;SDS011;65393;53.160;18.170;2022-12-20T16:36:18;61.80;;;22.50;;
76550;SDS011;65393;53.160;18.170;2022-12-20T16:38:45;60.40;;;21.50;;
76550;SDS011;65393;53.160;18.170;2022-12-20T16:41:13;61.80;;;23.10;;
76550;SDS011;65393;53.160;18.170;2022-12-20T16:43:45;58.70;;;23.30;;
76550;SDS011;65393;53.160;18.170;2022-12-20T16:46:14;56.70;;;20.70;;
76550;SDS011;65393;53.160;18.170;2022-12-20T16:48:45;71.40;;;25.30;;
76550;SDS011;65393;53.160;18.170;2022-12-20T16:53:55;85.80;;;28.80;;
76550;SDS011;65393;53.160;18.170;2022-12-20T16:56:24;94.50;;;36.10;;
76550;SDS011;65393;53.160;18.170;2022-12-20T16:58:52;109.80;;;42.20;;
76550;SDS011;65393;53.160;18.170;2022-12-20T17:01:20;120.20;;;49.90;;
76550;SDS011;65393;53.160;18.170;2022-12-20T17:03:49;89.50;;;39.00;;
76550;SDS011;65393;53.160;18.170;2022-12-20T17:06:17;95.50;;;40.10;;
76550;SDS011;65393;53.160;18.170;2022-12-20T17:08:45;82.30;;;33.90;;